createdAt,value
2022-08-19T00:02:02.399Z,18.07
2022-08-19T00:04:31.934Z,19.90
2022-08-19T00:07:00.316Z,18.63
2022-08-19T00:09:28.100Z,17.77
2022-08-19T00:11:56.736Z,15.07
2022-08-19T00:14:25.646Z,18.40
2022-08-19T00:16:55.359Z,20.10
2022-08-19T00:19:23.394Z,18.08
2022-08-19T00:21:50.299Z,16.30
2022-08-19T00:24:17.609Z,18.27
2022-08-19T00:26:46.394Z,19.35
2022-08-19T00:29:16.372Z,15.18
2022-08-19T00:31:44.112Z,15.73
2022-08-19T00:34:12.880Z,19.67
2022-08-19T00:36:40.295Z,15.68
2022-08-19T00:39:07.760Z,18.45
2022-08-19T00:41:34.851Z,16.00
2022-08-19T00:44:08.983Z,19.65
2022-08-19T00:46:38.381Z,19.65
2022-08-19T00:49:18.050Z,15.47
2022-08-19T00:51:49.082Z,13.90
2022-08-19T00:54:16.446Z,14.52
2022-08-19T00:56:44.596Z,13.00
2022-08-19T00:59:11.574Z,14.48
2022-08-19T01:01:40.521Z,17.42
2022-08-19T01:04:08.002Z,18.20
2022-08-19T01:06:37.204Z,18.25
2022-08-19T01:09:04.229Z,18.33
2022-08-19T01:11:34.081Z,18.30
2022-08-19T01:14:00.883Z,15.95
2022-08-19T01:16:30.030Z,14.40
2022-08-19T01:18:58.045Z,15.90
2022-08-19T01:21:45.215Z,15.90
2022-08-19T01:24:11.884Z,16.27
2022-08-19T01:26:45.039Z,18.35
2022-08-19T01:29:13.882Z,19.10
2022-08-19T01:31:41.789Z,16.45
2022-08-19T01:34:09.341Z,19.10
2022-08-19T01:36:45.292Z,19.40
2022-08-19T01:39:15.000Z,21.70
2022-08-19T01:41:41.702Z,21.17
2022-08-19T01:44:18.558Z,19.60
2022-08-19T01:46:48.015Z,21.17
2022-08-19T01:49:14.906Z,20.80
2022-08-19T01:51:41.907Z,23.40
2022-08-19T01:54:11.005Z,21.60
2022-08-19T01:56:38.003Z,18.75
2022-08-19T01:59:11.300Z,23.03
2022-08-19T02:01:38.006Z,18.15
2022-08-19T02:04:07.757Z,23.80
2022-08-19T02:06:34.610Z,22.83
2022-08-19T02:09:01.418Z,23.45
2022-08-19T02:11:32.586Z,27.27
2022-08-19T02:14:01.451Z,25.85
2022-08-19T02:16:28.522Z,23.80
2022-08-19T02:18:55.766Z,21.48
2022-08-19T02:21:24.029Z,21.43
2022-08-19T02:23:51.900Z,21.00
2022-08-19T02:26:19.691Z,21.63
2022-08-19T02:28:47.135Z,18.17
2022-08-19T02:31:19.165Z,25.27
2022-08-19T02:33:47.001Z,21.88
2022-08-19T02:36:16.462Z,17.98
2022-08-19T02:38:54.306Z,22.95
2022-08-19T02:41:27.364Z,21.13
2022-08-19T02:44:29.534Z,17.83
2022-08-19T02:46:47.921Z,18.58
2022-08-19T02:49:17.331Z,19.60
2022-08-19T02:51:46.155Z,19.25
2022-08-19T02:54:14.130Z,20.23
2022-08-19T02:56:42.365Z,22.23
2022-08-19T02:59:12.191Z,22.63
2022-08-19T03:01:41.536Z,23.48
2022-08-19T03:04:10.627Z,24.17
2022-08-19T03:06:39.953Z,24.23
2022-08-19T03:09:06.639Z,21.60
2022-08-19T03:11:33.946Z,23.47
2022-08-19T03:14:01.242Z,22.97
2022-08-19T03:16:33.205Z,23.50
2022-08-19T03:19:02.052Z,24.45
2022-08-19T03:21:32.136Z,25.37
2022-08-19T03:24:05.634Z,26.77
2022-08-19T03:26:33.069Z,27.27
2022-08-19T03:29:05.490Z,27.20
2022-08-19T03:31:43.584Z,23.33
2022-08-19T03:34:22.089Z,26.07
2022-08-19T03:36:49.292Z,30.13
2022-08-19T03:39:16.824Z,25.27
2022-08-19T03:41:48.343Z,28.27
2022-08-19T03:44:19.446Z,26.13
2022-08-19T03:46:51.557Z,26.57
2022-08-19T03:49:20.350Z,27.07
2022-08-19T03:51:48.927Z,29.47
2022-08-19T03:54:18.747Z,27.27
2022-08-19T03:56:47.173Z,34.27
2022-08-19T03:59:20.840Z,27.27
2022-08-19T04:01:47.880Z,29.43
2022-08-19T04:04:14.531Z,24.93
2022-08-19T04:06:41.279Z,26.17
2022-08-19T04:09:10.735Z,28.87
2022-08-19T04:11:43.458Z,27.00
2022-08-19T04:14:16.855Z,26.50
2022-08-19T04:16:45.557Z,28.83
2022-08-19T04:19:12.927Z,26.63
2022-08-19T04:21:39.600Z,25.57
2022-08-19T04:24:07.392Z,28.43
2022-08-19T04:26:38.269Z,29.30
2022-08-19T04:29:12.140Z,23.90
2022-08-19T04:31:38.999Z,29.67
2022-08-19T04:34:08.019Z,29.90
2022-08-19T04:36:36.680Z,26.03
2022-08-19T04:39:15.298Z,27.97
2022-08-19T04:42:00.396Z,23.70
2022-08-19T04:44:27.541Z,28.63
2022-08-19T04:46:54.312Z,24.80
2022-08-19T04:49:23.284Z,25.47
2022-08-19T04:51:52.499Z,27.97
2022-08-19T04:54:31.003Z,22.90
2022-08-19T04:57:08.072Z,23.70
2022-08-19T04:59:36.474Z,21.83
2022-08-19T05:02:04.068Z,20.77
2022-08-19T05:04:34.514Z,23.25
2022-08-19T05:07:02.266Z,24.80
2022-08-19T05:09:55.433Z,24.08
2022-08-19T05:12:18.450Z,26.00
2022-08-19T05:14:45.974Z,21.27
2022-08-19T05:17:31.248Z,22.15
2022-08-19T05:20:18.169Z,21.55
2022-08-19T05:22:47.570Z,22.25
2022-08-19T05:25:20.456Z,22.08
2022-08-19T05:27:48.203Z,19.83
2022-08-19T05:30:15.651Z,20.05
2022-08-19T05:32:42.822Z,18.88
2022-08-19T05:35:10.613Z,19.85
2022-08-19T05:37:37.516Z,22.73
2022-08-19T05:40:05.059Z,25.30
2022-08-19T05:42:32.317Z,25.60
2022-08-19T05:44:59.147Z,27.58
2022-08-19T05:47:26.100Z,22.90
2022-08-19T05:49:52.812Z,22.23
2022-08-19T05:52:25.580Z,19.85
2022-08-19T05:54:55.822Z,19.92
2022-08-19T05:57:23.268Z,26.85
2022-08-19T05:59:57.603Z,31.80
2022-08-19T06:02:26.188Z,28.73
2022-08-19T06:04:53.725Z,27.90
2022-08-19T06:07:20.630Z,26.17
2022-08-19T06:09:59.036Z,24.77
2022-08-19T06:12:33.612Z,23.73
2022-08-19T06:15:02.248Z,24.60
2022-08-19T06:17:31.449Z,24.75
2022-08-19T06:19:59.474Z,25.63
2022-08-19T06:22:26.435Z,23.73
2022-08-19T06:24:54.726Z,24.73
2022-08-19T06:27:22.245Z,26.23
2022-08-19T06:29:49.472Z,25.38
2022-08-19T06:32:18.983Z,22.30
2022-08-19T06:34:46.597Z,25.98
2022-08-19T06:37:13.447Z,22.92
2022-08-19T06:39:41.691Z,22.43
2022-08-19T06:42:11.113Z,24.67
2022-08-19T06:44:43.051Z,23.13
2022-08-19T06:47:14.833Z,22.13
2022-08-19T06:49:50.307Z,20.23
2022-08-19T06:52:18.256Z,23.58
2022-08-19T06:54:55.368Z,20.00
2022-08-19T06:57:24.358Z,22.67
2022-08-19T06:59:51.612Z,21.63
2022-08-19T07:04:52.650Z,18.10
2022-08-19T07:07:21.939Z,16.33
2022-08-19T07:09:57.997Z,16.33
2022-08-19T07:12:35.423Z,14.07
2022-08-19T07:15:04.537Z,13.55
2022-08-19T07:17:34.575Z,13.02
2022-08-19T07:20:05.601Z,15.75
2022-08-19T07:22:34.798Z,12.85
2022-08-19T07:25:03.640Z,12.57
2022-08-19T07:27:30.611Z,12.60
2022-08-19T07:30:01.055Z,12.07
2022-08-19T07:32:28.030Z,13.00
2022-08-19T07:34:56.486Z,13.02
2022-08-19T07:37:28.325Z,12.40
2022-08-19T07:39:57.494Z,14.40
2022-08-19T07:42:24.552Z,13.82
2022-08-19T07:44:51.280Z,15.20
2022-08-19T07:47:49.171Z,16.13
2022-08-19T07:50:09.322Z,15.48
2022-08-19T07:52:39.888Z,14.15
2022-08-19T07:55:11.297Z,14.70
2022-08-19T07:57:55.412Z,14.77
2022-08-19T08:00:24.427Z,18.55
2022-08-19T08:02:53.031Z,20.35
2022-08-19T08:05:43.701Z,28.48
2022-08-19T08:08:30.427Z,23.33
2022-08-19T08:10:57.522Z,24.87
2022-08-19T08:13:25.454Z,25.97
2022-08-19T08:15:53.359Z,29.93
2022-08-19T08:18:27.638Z,30.33
2022-08-19T08:20:58.942Z,27.17
2022-08-19T08:23:27.129Z,27.67
2022-08-19T08:25:58.157Z,29.87
2022-08-19T08:28:29.552Z,24.80
2022-08-19T08:30:58.294Z,28.93
2022-08-19T08:33:32.688Z,26.90
2022-08-19T08:36:06.010Z,31.73
2022-08-19T08:38:39.635Z,29.07
2022-08-19T08:41:28.894Z,27.97
2022-08-19T08:43:58.351Z,31.00
2022-08-19T08:46:48.436Z,26.07
2022-08-19T08:49:43.847Z,28.90
2022-08-19T08:52:17.704Z,30.60
2022-08-19T08:54:48.817Z,26.57
2022-08-19T08:57:37.658Z,24.07
2022-08-19T09:00:15.678Z,27.80
2022-08-19T09:02:43.868Z,27.47
2022-08-19T09:05:16.616Z,25.67
2022-08-19T09:08:19.358Z,28.63
2022-08-19T09:10:55.204Z,22.63
2022-08-19T09:13:28.393Z,26.03
2022-08-19T09:16:04.217Z,25.83
2022-08-19T09:18:53.642Z,26.03
2022-08-19T09:21:25.744Z,25.63
2022-08-19T09:23:58.897Z,28.40
2022-08-19T09:26:35.506Z,28.20
2022-08-19T09:29:14.703Z,23.57
2022-08-19T09:31:41.695Z,27.93
2022-08-19T09:34:09.317Z,26.83
2022-08-19T09:36:54.655Z,26.93
2022-08-19T09:39:22.691Z,25.60
2022-08-19T09:41:50.824Z,24.27
2022-08-19T09:44:19.082Z,25.47
2022-08-19T09:46:47.877Z,25.93
2022-08-19T09:49:15.666Z,24.30
2022-08-19T09:51:50.877Z,25.67
2022-08-19T09:54:19.341Z,25.70
2022-08-19T09:56:52.553Z,23.47
2022-08-19T09:59:19.287Z,25.83
2022-08-19T10:01:46.137Z,28.30
2022-08-19T10:04:19.910Z,24.33
2022-08-19T10:06:48.477Z,27.43
2022-08-19T10:09:33.778Z,21.80
2022-08-19T10:12:02.656Z,25.83
2022-08-19T10:14:29.723Z,21.57
2022-08-19T10:16:57.483Z,20.97
2022-08-19T10:19:26.403Z,20.80
2022-08-19T10:21:55.706Z,21.37
2022-08-19T10:24:28.539Z,22.33
2022-08-19T10:26:56.050Z,22.97
2022-08-19T10:29:32.527Z,20.13
2022-08-19T10:32:09.400Z,20.43
2022-08-19T10:34:48.023Z,19.87
2022-08-19T10:37:23.642Z,20.63
2022-08-19T10:39:55.836Z,26.03
2022-08-19T10:42:22.691Z,21.60
2022-08-19T10:44:49.430Z,21.83
2022-08-19T10:47:25.488Z,22.93
2022-08-19T10:50:12.762Z,21.20
2022-08-19T10:52:49.513Z,19.00
2022-08-19T10:55:38.417Z,19.43
2022-08-19T10:58:10.644Z,23.00
2022-08-19T11:00:38.050Z,19.73
2022-08-19T11:03:04.693Z,19.37
2022-08-19T11:05:31.458Z,23.10
2022-08-19T11:08:22.270Z,19.80
2022-08-19T11:10:52.092Z,20.13
2022-08-19T11:13:18.736Z,19.73
2022-08-19T11:15:48.370Z,20.80
2022-08-19T11:18:15.078Z,21.43
2022-08-19T11:20:42.149Z,19.70
2022-08-19T11:23:08.977Z,20.83
2022-08-19T11:25:36.148Z,18.87
2022-08-19T11:28:03.110Z,20.23
2022-08-19T11:30:31.774Z,17.40
2022-08-19T11:33:01.869Z,18.13
2022-08-19T11:35:29.099Z,23.27
2022-08-19T11:37:57.356Z,18.03
2022-08-19T11:40:24.421Z,19.23
2022-08-19T11:42:57.640Z,18.27
2022-08-19T11:45:26.617Z,18.10
2022-08-19T11:47:54.206Z,15.70
2022-08-19T11:50:21.242Z,17.67
2022-08-19T11:52:50.649Z,18.13
2022-08-19T11:55:17.525Z,17.30
2022-08-19T11:57:44.607Z,19.10
2022-08-19T12:00:15.108Z,23.10
2022-08-19T12:02:41.940Z,14.93
2022-08-19T12:05:12.327Z,14.33
2022-08-19T12:07:40.590Z,16.23
2022-08-19T12:10:07.714Z,14.63
2022-08-19T12:12:35.315Z,14.77
2022-08-19T12:15:03.122Z,18.20
2022-08-19T12:17:31.814Z,13.83
2022-08-19T12:19:58.514Z,14.93
2022-08-19T12:22:25.239Z,16.50
2022-08-19T12:24:54.151Z,15.13
2022-08-19T12:27:32.325Z,14.85
2022-08-19T12:30:10.595Z,15.30
2022-08-19T12:32:37.749Z,15.43
2022-08-19T12:35:05.265Z,19.05
2022-08-19T12:37:33.111Z,19.63
2022-08-19T12:40:00.450Z,18.93
2022-08-19T12:42:27.334Z,17.67
2022-08-19T12:44:54.076Z,21.33
2022-08-19T12:47:21.414Z,19.73
2022-08-19T12:49:53.315Z,20.57
2022-08-19T12:52:23.819Z,20.47
2022-08-19T12:54:53.822Z,25.23
2022-08-19T12:57:24.013Z,26.13
2022-08-19T12:59:58.373Z,22.50
2022-08-19T13:02:25.010Z,23.60
2022-08-19T13:04:51.632Z,20.00
2022-08-19T13:07:18.348Z,22.37
2022-08-19T13:09:45.652Z,23.97
2022-08-19T13:12:13.993Z,18.20
2022-08-19T13:14:41.364Z,25.63
2022-08-19T13:17:09.490Z,23.37
2022-08-19T13:19:38.388Z,18.77
2022-08-19T13:22:13.156Z,24.63
2022-08-19T13:24:46.890Z,22.83
2022-08-19T13:27:14.682Z,25.03
2022-08-19T13:30:01.191Z,24.97
2022-08-19T13:32:46.904Z,26.70
2022-08-19T13:35:17.145Z,22.03
2022-08-19T13:37:44.694Z,24.17
2022-08-19T13:40:19.405Z,23.07
2022-08-19T13:42:48.345Z,24.50
2022-08-19T13:45:20.824Z,28.43
2022-08-19T13:47:58.436Z,29.03
2022-08-19T13:50:29.514Z,28.33
2022-08-19T13:52:57.185Z,23.43
2022-08-19T13:55:25.107Z,27.30
2022-08-19T13:57:57.230Z,27.60
2022-08-19T14:00:27.551Z,27.30
2022-08-19T14:02:57.589Z,26.13
2022-08-19T14:05:25.942Z,26.77
2022-08-19T14:07:53.727Z,27.90
2022-08-19T14:10:22.271Z,26.43
2022-08-19T14:12:49.033Z,28.07
2022-08-19T14:15:16.339Z,26.40
2022-08-19T14:17:45.506Z,22.27
2022-08-19T14:20:18.358Z,26.33
2022-08-19T14:22:46.764Z,23.30
2022-08-19T14:25:18.403Z,19.00
2022-08-19T14:27:45.865Z,19.63
2022-08-19T14:30:16.267Z,18.93
2022-08-19T14:32:44.326Z,16.27
2022-08-19T14:35:13.310Z,19.42
2022-08-19T14:37:45.593Z,21.73
2022-08-19T14:40:29.640Z,14.10
2022-08-19T14:43:04.539Z,12.77
2022-08-19T14:45:34.941Z,16.87
2022-08-19T14:48:03.833Z,18.10
2022-08-19T14:50:30.481Z,19.40
2022-08-19T14:53:09.010Z,18.47
2022-08-19T14:55:43.843Z,22.13
2022-08-19T14:58:10.637Z,20.37
2022-08-19T15:00:55.449Z,18.40
2022-08-19T15:03:22.072Z,18.50
2022-08-19T15:05:48.707Z,18.30
2022-08-19T15:08:15.353Z,17.70
2022-08-19T15:10:42.065Z,16.63
2022-08-19T15:13:08.971Z,15.17
2022-08-19T15:15:35.945Z,14.27
2022-08-19T15:18:03.561Z,15.30
2022-08-19T15:20:30.766Z,13.80
2022-08-19T15:22:59.485Z,15.30
2022-08-19T15:25:27.259Z,15.90
2022-08-19T15:27:54.566Z,14.90
2022-08-19T15:30:25.538Z,13.87
2022-08-19T15:32:53.495Z,12.10
2022-08-19T15:35:21.355Z,11.57
2022-08-19T15:37:52.527Z,12.33
2022-08-19T15:40:20.992Z,13.33
2022-08-19T15:42:49.704Z,12.67
2022-08-19T15:45:17.945Z,13.23
2022-08-19T15:47:44.783Z,11.77
2022-08-19T15:50:18.503Z,12.77
2022-08-19T15:52:50.955Z,11.20
2022-08-19T15:55:33.521Z,10.30
2022-08-19T15:58:29.711Z,10.33
2022-08-19T16:01:20.248Z,9.40
2022-08-19T16:04:14.213Z,9.77
2022-08-19T16:06:48.474Z,11.57
2022-08-19T16:09:17.163Z,11.10
2022-08-19T16:11:46.471Z,11.27
2022-08-19T16:14:18.674Z,10.30
2022-08-19T16:16:47.623Z,10.10
2022-08-19T16:19:16.335Z,11.07
2022-08-19T16:21:45.133Z,10.67
2022-08-19T16:24:14.616Z,11.83
2022-08-19T16:26:43.185Z,12.00
2022-08-19T16:29:13.144Z,11.97
2022-08-19T16:31:42.239Z,11.87
2022-08-19T16:34:08.979Z,10.93
2022-08-19T16:36:36.050Z,10.13
2022-08-19T16:39:03.855Z,9.93
2022-08-19T16:41:30.482Z,10.87
2022-08-19T16:43:57.279Z,10.13
2022-08-19T16:46:26.815Z,9.93
2022-08-19T16:48:54.172Z,8.50
2022-08-19T16:51:22.755Z,9.27
2022-08-19T16:53:51.924Z,8.80
2022-08-19T16:56:19.716Z,10.43
2022-08-19T16:58:46.381Z,8.10
2022-08-19T17:01:13.667Z,13.10
2022-08-19T17:03:40.500Z,9.30
2022-08-19T17:06:18.534Z,8.83
2022-08-19T17:08:50.281Z,8.93
2022-08-19T17:11:19.117Z,10.20
2022-08-19T17:13:47.993Z,8.17
2022-08-19T17:16:16.462Z,8.70
2022-08-19T17:18:43.395Z,9.97
2022-08-19T17:21:10.077Z,8.70
2022-08-19T17:23:42.730Z,8.53
2022-08-19T17:26:17.985Z,9.43
2022-08-19T17:28:49.316Z,10.27
2022-08-19T17:31:17.472Z,8.80
2022-08-19T17:33:46.224Z,10.63
2022-08-19T17:36:19.403Z,10.23
2022-08-19T17:38:46.232Z,10.70
2022-08-19T17:41:13.415Z,9.93
2022-08-19T17:43:43.641Z,9.87
2022-08-19T17:46:17.940Z,12.53
2022-08-19T17:48:51.473Z,10.37
2022-08-19T17:51:33.098Z,9.87
2022-08-19T17:54:00.418Z,9.50
2022-08-19T17:56:28.606Z,13.17
2022-08-19T17:59:00.654Z,9.97
2022-08-19T18:01:36.956Z,9.40
2022-08-19T18:04:18.779Z,9.73
2022-08-19T18:06:46.002Z,7.03
2022-08-19T18:09:20.732Z,8.80
2022-08-19T18:11:52.875Z,6.97
2022-08-19T18:14:21.106Z,7.53
2022-08-19T18:16:47.889Z,6.30
2022-08-19T18:19:14.528Z,6.93
2022-08-19T18:21:41.182Z,5.43
2022-08-19T18:24:07.993Z,6.10
2022-08-19T18:26:35.085Z,6.53
2022-08-19T18:29:02.051Z,7.07
2022-08-19T18:31:29.948Z,6.63
2022-08-19T18:33:57.997Z,6.23
2022-08-19T18:36:51.921Z,5.90
2022-08-19T18:39:30.444Z,6.10
2022-08-19T18:42:15.791Z,5.60
2022-08-19T18:45:01.510Z,5.47
2022-08-19T18:47:46.947Z,4.93
2022-08-19T18:50:13.963Z,5.77
2022-08-19T18:52:40.943Z,5.37
2022-08-19T18:55:08.504Z,4.33
2022-08-19T18:57:35.227Z,4.50
2022-08-19T19:00:04.485Z,4.70
2022-08-19T19:02:38.605Z,5.15
2022-08-19T19:05:07.671Z,6.60
2022-08-19T19:07:35.392Z,4.90
2022-08-19T19:10:02.369Z,4.43
2022-08-19T19:12:29.684Z,4.53
2022-08-19T19:14:58.411Z,5.72
2022-08-19T19:17:28.451Z,7.07
2022-08-19T19:19:55.217Z,5.85
2022-08-19T19:22:23.581Z,5.97
2022-08-19T19:24:51.081Z,5.57
2022-08-19T19:27:20.562Z,5.63
2022-08-19T19:29:52.090Z,5.07
2022-08-19T19:32:26.063Z,6.63
2022-08-19T19:34:53.408Z,5.13
2022-08-19T19:37:20.922Z,5.10
2022-08-19T19:39:48.192Z,4.83
2022-08-19T19:42:21.302Z,6.07
2022-08-19T19:44:54.783Z,5.40
2022-08-19T19:47:24.263Z,5.77
2022-08-19T19:50:13.946Z,6.20
2022-08-19T19:52:38.813Z,5.33
2022-08-19T19:55:05.937Z,5.77
2022-08-19T19:57:32.691Z,5.50
2022-08-19T19:59:59.432Z,5.60
2022-08-19T20:02:26.136Z,6.60
2022-08-19T20:04:53.939Z,6.73
2022-08-19T20:07:40.566Z,5.60
2022-08-19T20:10:07.494Z,6.43
2022-08-19T20:12:34.725Z,5.87
2022-08-19T20:15:01.391Z,5.87
2022-08-19T20:17:28.062Z,6.07
2022-08-19T20:19:57.492Z,5.97
2022-08-19T20:22:25.759Z,5.50
2022-08-19T20:24:53.738Z,6.33
2022-08-19T20:27:23.598Z,7.40
2022-08-19T20:29:53.291Z,7.10
2022-08-19T20:32:19.934Z,7.33
2022-08-19T20:34:49.036Z,7.27
2022-08-19T20:37:16.280Z,7.13
2022-08-19T20:39:43.091Z,8.63
2022-08-19T20:42:09.964Z,9.57
2022-08-19T20:44:37.678Z,7.97
2022-08-19T20:47:04.755Z,8.17
2022-08-19T20:49:32.294Z,7.20
2022-08-19T20:51:59.028Z,9.10
2022-08-19T20:54:26.869Z,7.83
2022-08-19T20:56:54.259Z,7.87
2022-08-19T20:59:21.771Z,7.07
2022-08-19T21:01:51.611Z,7.97
2022-08-19T21:04:19.890Z,7.13
2022-08-19T21:06:46.587Z,7.10
2022-08-19T21:09:15.981Z,8.20
2022-08-19T21:11:43.999Z,7.13
2022-08-19T21:14:10.775Z,7.23
2022-08-19T21:16:37.429Z,7.77
2022-08-19T21:19:04.739Z,8.77
2022-08-19T21:21:32.981Z,8.20
2022-08-19T21:23:59.880Z,8.60
2022-08-19T21:26:26.876Z,6.20
2022-08-19T21:28:53.761Z,7.80
2022-08-19T21:31:21.142Z,7.87
2022-08-19T21:33:47.796Z,7.77
2022-08-19T21:36:14.446Z,7.10
2022-08-19T21:38:41.353Z,8.57
2022-08-19T21:41:08.353Z,6.47
2022-08-19T21:43:37.126Z,7.47
2022-08-19T21:46:04.493Z,7.50
2022-08-19T21:48:31.352Z,9.00
2022-08-19T21:50:57.980Z,8.23
2022-08-19T21:53:24.752Z,9.67
2022-08-19T21:55:58.476Z,16.97
2022-08-19T21:58:28.162Z,8.13
2022-08-19T22:00:59.194Z,9.47
2022-08-19T22:03:26.652Z,7.70
2022-08-19T22:05:53.642Z,8.43
2022-08-19T22:08:20.333Z,8.43
2022-08-19T22:10:47.095Z,10.63
2022-08-19T22:13:14.525Z,8.37
2022-08-19T22:15:42.468Z,10.87
2022-08-19T22:18:09.294Z,7.00
2022-08-19T22:20:36.667Z,6.07
2022-08-19T22:23:07.162Z,6.40
2022-08-19T22:25:37.435Z,5.87
2022-08-19T22:28:06.921Z,6.50
2022-08-19T22:30:39.877Z,7.30
2022-08-19T22:33:12.369Z,6.20
2022-08-19T22:35:40.964Z,6.27
2022-08-19T22:38:09.145Z,6.10
2022-08-19T22:40:39.577Z,7.20
2022-08-19T22:43:14.366Z,6.93
2022-08-19T22:45:42.106Z,6.70
2022-08-19T22:48:12.046Z,7.20
2022-08-19T22:50:41.342Z,7.27
2022-08-19T22:53:09.363Z,6.57
2022-08-19T22:55:38.251Z,6.93
2022-08-19T22:58:05.622Z,8.60
2022-08-19T23:00:33.444Z,6.83
2022-08-19T23:03:01.533Z,7.90
2022-08-19T23:05:29.342Z,7.77
2022-08-19T23:07:57.894Z,7.10
2022-08-19T23:10:27.630Z,7.10
2022-08-19T23:12:56.862Z,8.23
2022-08-19T23:15:26.610Z,7.30
2022-08-19T23:17:56.808Z,7.13
2022-08-19T23:20:27.706Z,6.80
2022-08-19T23:22:55.630Z,7.15
2022-08-19T23:25:25.861Z,6.80
2022-08-19T23:28:11.495Z,7.30
2022-08-19T23:30:43.978Z,6.75
2022-08-19T23:33:24.878Z,7.72
2022-08-19T23:35:54.128Z,8.93
2022-08-19T23:38:23.294Z,8.02
2022-08-19T23:40:53.097Z,7.27
2022-08-19T23:43:25.192Z,6.95
2022-08-19T23:45:52.184Z,6.88
2022-08-19T23:48:19.516Z,6.80
2022-08-19T23:50:46.790Z,7.25
2022-08-19T23:53:15.313Z,6.83
2022-08-19T23:55:44.761Z,7.25
2022-08-19T23:58:13.653Z,6.45
